Terminal Aerodrome Forecast
Issued by NWS

Home | Current Version | Previous Version | Text Only | Print | Product List | Glossary On
Versions: 1 2 3 4 5 6 7 8 9 10 11 12 13 14 15 16 17
000
FTUS42 KRAH 220527
TAFINT
TAF
KINT 220527Z 2206/2306 VRB03KT P6SM -SHRA OVC030
     FM220900 29002KT P6SM SCT040 SCT250
      TEMPO 2209/2212 3SM BR SCT003
     FM221400 34011G19KT P6SM SKC
     FM230000 01007KT P6SM BKN250=

USA.gov is the U.S. government's official web portal to all federal, state and local government web resources and services.